aviador You're here:

UKDD Decoded Metar

DNEPROPETROVSK in UKRAINE
Report Time2017-11-24 01:30:00
UTC Time2017-11-24 02:05:08
Flight Rules vfr VFR
Wind340° at 10 kt
W.Decomp.*RWY 26: 2.9 kt HW 9.6 kt RCW
W.Rank340° ranks 19
Current wind is above 340° avg. (9.2)
Visibility9999 m
Phenomena:N/A
Clouds:Overcast 032 Hf
Expected CloudBase > 2,000 ft AGL from Temp-Dew spread
Ceiling3,200 ft
Temp-1°C (ISA -15)
Dew Point-6°C (69% RH)
AAT-7.3°C
QNH1020 hPa
Density Alt-1,532 ft
Elevation489 ft
Report Wrong Elevation
Raw Report
UKDD 240130Z 34005MPS 9999 OVC032 M01/M06 Q1020 R26/710270
NOSIG=

Extra information for UKDD:More info

Metar Taf Metar & Taf Last 4 Metars F.Rules Stats Wind Profile Meteogram Temp Stats Airport Information Weather charts Add Link Nearby VenuesMetar ALERT Operation Metar Decoded Social comments